Rockaway Beach, Oregon
Current Conditions -  °F | °C
As of 8:15 PM on Wednesday 26 Nov 2014 (Local Time) from KTMK Reporting Station
Broken Clouds Broken Clouds  
Wind Chill: 59°   Ceiling: 12000
Heat Index: 59°   Visibility: 10mi
Dew Point: 43°   Wind: 14mph
Humidity: 55%   Direction: 160°SSE
Pressure: 29.98"   Gusts: NA
Location:  45.61°N, 123.94°W
Report Text: KTMK 270415Z AUTO 16012KT 10SM SCT095 BKN120 15/06 A2998 RMK AO2
Loading
Personal Weather Stations






























Interactive Weather Map New forecast layout! Learn more

10-Day Weather Forecast

Advertisements
Track Severe Weather on mobile